ESKM

Details ICAO ESKM (MXX)
Name MORA
Region Sweden
Timezone Europe/Stockholm (UTC+1.0)
Plans Departing 6
Arriving 5
Stats Elevation 634 ft / 193 m (AMSL)
Location 60.957907° 14.511383°
Runways 1
Magnetic Variation 4.893° E
Sunrise 2017-12-13 08:07:41 UTC / 2017-12-13 09:07:41 Local
Sunset 2017-12-13 13:47:25 UTC / 2017-12-13 14:47:25 Local
Advertisement - Login to hide

Runways

ID Width Length Bearing (true) Bearing (mag) Surface Threshold Offset Overrun Length
16 148 ft / 45 m 5,940 ft / 1,811 m 161.25° 156.36° Asphalt 0 ft / 0 m 0 ft / 0 m
34 148 ft / 45 m 5,940 ft / 1,811 m 341.26° 336.37° Asphalt 0 ft / 0 m 0 ft / 0 m

Approach Navaids

Runway Type Ident Frequency Range Bearing (true) Bearing (mag) Slope Elevation
16 Localiser NKM 109.70 MHz 18 nm / 33 km 161.26° 156.37° - 634 ft / 193 m (AMSL)
16 Glidescope NKM 109.70 MHz 10 nm / 19 km 161.25° 156.36° 3.00° 634 ft / 193 m (AMSL)

Map

Weather


0- 5 10 15 20 25 30 35+ Temperature / ° C

Clouds and Precipitation
Forecast for 2017-12-13 00:00 UTC. Updated 23 minutes ago

Ground ~20,000 ft ~40,000 ft Winds

METAR

ESKM 122320Z AUTO 24005KT 9999 NCD M10/M12 Q0993

TAF

Not found

Frequencies

Tower 129.85 MHz AFIS
Warning: Do not use this data for real-world aviation or navigation. No guarantee of current accuracy is given.